Time;durP1;ratioP1;P1;durP2;ratioP2;P2;SDS_P1;SDS_P2;PMS_P1;PMS_P2;Temp;Humidity;BMP_temperature;BMP_pressure;BME280_temperature;BME280_humidity;BME280_pressure;Samples;Min_cycle;Max_cycle;Signal;HPM_P1;HPM_P2
2022/07/06 00:01:28;;;;;;;2.65;1.65;;;;;;;;;;5104273;28;20101;-66
2022/07/06 00:03:54;;;;;;;3.33;1.50;;;;;;;;;;5111796;28;20485;-66
2022/07/06 00:06:20;;;;;;;5.00;1.63;;;;;;;;;;5106358;28;20048;-66
2022/07/06 00:08:46;;;;;;;2.90;1.45;;;;;;;;;;5103471;28;20281;-66
2022/07/06 00:11:12;;;;;;;4.32;1.52;;;;;;;;;;5109547;28;20527;-66
2022/07/06 00:13:38;;;;;;;4.60;1.67;;;;;;;;;;5096646;28;20077;-66
2022/07/06 00:16:04;;;;;;;4.82;1.40;;;;;;;;;;5109074;28;20047;-66
2022/07/06 00:18:30;;;;;;;5.35;1.25;;;;;;;;;;5109653;28;20429;-66
2022/07/06 00:20:56;;;;;;;4.32;1.88;;;;;;;;;;5103412;28;20035;-66
2022/07/06 00:23:22;;;;;;;3.45;1.67;;;;;;;;;;5108892;28;20031;-66
2022/07/06 00:25:49;;;;;;;5.57;1.38;;;;;;;;;;5103612;28;20036;-66
2022/07/06 00:28:15;;;;;;;5.30;1.67;;;;;;;;;;5104466;28;20094;-66
2022/07/06 00:30:41;;;;;;;4.82;1.55;;;;;;;;;;5109336;28;20035;-66
2022/07/06 00:33:07;;;;;;;4.22;1.73;;;;;;;;;;5099708;28;20039;-66
2022/07/06 00:35:33;;;;;;;4.20;1.42;;;;;;;;;;5103094;28;20040;-66
2022/07/06 00:38:00;;;;;;;5.63;1.63;;;;;;;;;;5101909;28;20091;-66
2022/07/06 00:40:26;;;;;;;6.20;1.58;;;;;;;;;;5100575;28;20040;-66
2022/07/06 00:42:52;;;;;;;5.07;1.88;;;;;;;;;;5111008;28;20157;-66
2022/07/06 00:45:18;;;;;;;4.15;1.60;;;;;;;;;;5111292;28;20043;-66
2022/07/06 00:47:45;;;;;;;4.95;1.83;;;;;;;;;;5109398;28;20042;-66
2022/07/06 00:50:17;;;;;;;3.60;1.58;;;;;;;;;;5101236;28;20128;-66
2022/07/06 00:52:44;;;;;;;3.13;1.30;;;;;;;;;;5104895;28;20597;-66
2022/07/06 00:55:10;;;;;;;4.00;1.52;;;;;;;;;;5105966;28;20114;-66
2022/07/06 00:57:37;;;;;;;4.75;1.65;;;;;;;;;;5109414;28;20111;-66
2022/07/06 01:00:04;;;;;;;8.20;1.75;;;;;;;;;;5101207;28;20036;-66
2022/07/06 01:02:31;;;;;;;3.95;1.42;;;;;;;;;;5109931;28;20077;-66
2022/07/06 01:04:57;;;;;;;5.88;1.50;;;;;;;;;;5102471;28;20028;-66
2022/07/06 01:07:24;;;;;;;3.85;1.75;;;;;;;;;;5100048;28;20039;-66
2022/07/06 01:09:50;;;;;;;5.35;1.58;;;;;;;;;;5109533;28;20665;-66
2022/07/06 01:12:16;;;;;;;3.40;1.85;;;;;;;;;;5105885;28;20378;-66
2022/07/06 01:14:42;;;;;;;4.07;1.55;;;;;;;;;;5106299;28;20436;-66
2022/07/06 01:17:08;;;;;;;3.75;1.58;;;;;;;;;;5108602;28;20093;-66
2022/07/06 01:19:34;;;;;;;3.60;1.60;;;;;;;;;;5103710;28;20047;-66
2022/07/06 01:22:01;;;;;;;4.80;1.83;;;;;;;;;;5110517;28;20035;-66
2022/07/06 01:24:27;;;;;;;4.55;1.50;;;;;;;;;;5107378;28;20039;-66
2022/07/06 01:26:53;;;;;;;3.63;2.03;;;;;;;;;;5104025;28;20093;-66
2022/07/06 01:29:19;;;;;;;4.28;1.80;;;;;;;;;;5108504;28;20047;-66
2022/07/06 01:31:49;;;;;;;6.13;1.45;;;;;;;;;;5100925;28;20072;-66
2022/07/06 01:34:17;;;;;;;2.97;1.42;;;;;;;;;;5094469;28;20444;-66
2022/07/06 01:36:43;;;;;;;3.45;1.70;;;;;;;;;;5104568;28;20114;-66
2022/07/06 01:39:09;;;;;;;5.07;1.70;;;;;;;;;;5112929;28;20081;-66
2022/07/06 01:41:35;;;;;;;3.35;1.60;;;;;;;;;;5106474;28;20047;-66
2022/07/06 01:44:02;;;;;;;4.53;1.50;;;;;;;;;;5106757;28;20035;-66
2022/07/06 01:46:28;;;;;;;4.25;1.50;;;;;;;;;;5107930;28;20043;-66
2022/07/06 01:48:54;;;;;;;4.65;1.63;;;;;;;;;;5100552;28;20118;-66
2022/07/06 01:51:20;;;;;;;3.22;1.60;;;;;;;;;;5109287;28;20126;-66
2022/07/06 01:53:46;;;;;;;3.45;1.42;;;;;;;;;;5104347;28;20040;-66
2022/07/06 01:56:13;;;;;;;3.30;1.27;;;;;;;;;;5101975;28;20028;-66
2022/07/06 01:58:39;;;;;;;4.82;1.80;;;;;;;;;;5108850;28;20069;-66
2022/07/06 02:01:09;;;;;;;3.78;1.50;;;;;;;;;;5106016;28;20123;-66
2022/07/06 02:03:35;;;;;;;4.50;1.45;;;;;;;;;;5106636;28;20039;-66
2022/07/06 02:06:02;;;;;;;3.22;1.58;;;;;;;;;;5107574;28;20043;-66
2022/07/06 02:08:28;;;;;;;2.28;1.17;;;;;;;;;;5113847;28;20043;-66
2022/07/06 02:10:54;;;;;;;4.13;1.48;;;;;;;;;;5113272;28;20631;-66
2022/07/06 02:13:20;;;;;;;3.38;1.90;;;;;;;;;;5106749;28;20305;-66
2022/07/06 02:15:46;;;;;;;4.35;1.70;;;;;;;;;;5106234;28;20032;-66
2022/07/06 02:18:12;;;;;;;5.40;1.80;;;;;;;;;;5111901;28;20035;-66
2022/07/06 02:20:38;;;;;;;3.95;1.58;;;;;;;;;;5112029;28;20042;-66
2022/07/06 02:23:04;;;;;;;4.70;1.73;;;;;;;;;;5098306;28;20489;-67
2022/07/06 02:25:30;;;;;;;4.47;1.63;;;;;;;;;;5110231;28;20050;-66
2022/07/06 02:27:56;;;;;;;3.58;1.60;;;;;;;;;;5102855;28;20119;-66
2022/07/06 02:30:22;;;;;;;4.90;1.85;;;;;;;;;;5094541;28;20044;-66
2022/07/06 02:32:48;;;;;;;4.28;1.95;;;;;;;;;;5112834;28;20466;-66
2022/07/06 02:35:14;;;;;;;4.82;1.70;;;;;;;;;;5102596;28;20081;-66
2022/07/06 02:37:40;;;;;;;4.85;1.80;;;;;;;;;;5097454;28;20423;-66
2022/07/06 02:40:07;;;;;;;3.80;1.60;;;;;;;;;;5111925;28;20038;-66
2022/07/06 02:42:33;;;;;;;3.28;1.70;;;;;;;;;;5099154;28;20036;-66
2022/07/06 02:44:59;;;;;;;5.72;1.67;;;;;;;;;;5106234;28;20098;-66
2022/07/06 02:47:26;;;;;;;5.35;1.70;;;;;;;;;;5111675;28;20042;-66
2022/07/06 02:49:52;;;;;;;3.95;1.70;;;;;;;;;;5109580;28;20039;-66
2022/07/06 02:52:18;;;;;;;6.43;1.58;;;;;;;;;;5110731;28;20042;-66
2022/07/06 02:54:44;;;;;;;4.68;2.33;;;;;;;;;;5108559;28;20452;-66
2022/07/06 02:57:10;;;;;;;2.28;1.50;;;;;;;;;;5094286;28;20032;-66
2022/07/06 02:59:37;;;;;;;3.92;1.70;;;;;;;;;;5103175;28;20058;-66
2022/07/06 03:02:06;;;;;;;9.95;2.28;;;;;;;;;;5108498;28;21428;-66
2022/07/06 03:04:32;;;;;;;4.93;1.60;;;;;;;;;;5112633;28;20035;-66
2022/07/06 03:06:58;;;;;;;5.35;1.77;;;;;;;;;;5105950;27;20039;-66
2022/07/06 03:09:24;;;;;;;4.50;1.80;;;;;;;;;;5105052;28;20078;-66
2022/07/06 03:11:50;;;;;;;3.30;1.50;;;;;;;;;;5105265;28;20055;-66
2022/07/06 03:14:16;;;;;;;4.40;1.85;;;;;;;;;;5107204;28;20042;-66
2022/07/06 03:16:42;;;;;;;4.80;1.63;;;;;;;;;;5099566;28;20032;-66
2022/07/06 03:19:08;;;;;;;4.13;1.48;;;;;;;;;;5109236;28;20034;-66
2022/07/06 03:21:34;;;;;;;2.40;1.52;;;;;;;;;;5101221;28;20485;-66
2022/07/06 03:24:00;;;;;;;3.72;1.80;;;;;;;;;;5097710;28;20035;-66
2022/07/06 03:26:26;;;;;;;4.03;1.50;;;;;;;;;;5107499;28;20067;-66
2022/07/06 03:28:52;;;;;;;4.50;1.75;;;;;;;;;;5110918;28;20066;-66
2022/07/06 03:31:18;;;;;;;3.63;1.70;;;;;;;;;;5108222;28;20084;-66
2022/07/06 03:33:44;;;;;;;3.75;1.52;;;;;;;;;;5098027;28;20043;-66
2022/07/06 03:36:10;;;;;;;6.03;1.70;;;;;;;;;;5106097;28;20443;-66
2022/07/06 03:38:36;;;;;;;5.35;1.83;;;;;;;;;;5102807;28;20094;-66
2022/07/06 03:41:03;;;;;;;3.60;1.70;;;;;;;;;;5100028;28;20039;-66
2022/07/06 03:43:29;;;;;;;5.38;1.63;;;;;;;;;;5108272;28;20071;-66
2022/07/06 03:45:55;;;;;;;2.33;1.33;;;;;;;;;;5106065;28;20032;-65
2022/07/06 03:48:21;;;;;;;3.53;1.60;;;;;;;;;;5099588;28;20416;-66
2022/07/06 03:50:47;;;;;;;3.70;1.50;;;;;;;;;;5103795;28;20036;-66
2022/07/06 03:53:13;;;;;;;5.07;1.77;;;;;;;;;;5095559;28;20471;-66
2022/07/06 03:55:39;;;;;;;3.00;1.27;;;;;;;;;;5111246;28;20067;-66
2022/07/06 03:58:05;;;;;;;3.70;1.60;;;;;;;;;;5109678;28;20057;-66
2022/07/06 04:00:31;;;;;;;2.47;1.20;;;;;;;;;;5100524;28;20047;-66
2022/07/06 04:02:57;;;;;;;3.65;1.80;;;;;;;;;;5097009;28;20035;-66
2022/07/06 04:05:23;;;;;;;3.33;1.30;;;;;;;;;;5103267;28;20189;-66
2022/07/06 04:07:49;;;;;;;2.95;1.52;;;;;;;;;;5099126;28;20085;-67
2022/07/06 04:10:15;;;;;;;5.68;1.50;;;;;;;;;;5106415;28;20405;-66
2022/07/06 04:12:42;;;;;;;3.72;1.38;;;;;;;;;;5106684;28;20168;-66
2022/07/06 04:15:09;;;;;;;5.15;1.52;;;;;;;;;;5104602;28;20050;-66
2022/07/06 04:17:53;;;;;;;2.97;1.52;;;;;;;;;;5107598;28;20407;-66
2022/07/06 04:20:19;;;;;;;7.20;1.60;;;;;;;;;;5105838;28;20046;-66
2022/07/06 04:22:45;;;;;;;3.15;1.60;;;;;;;;;;5104285;28;20043;-66
2022/07/06 04:25:11;;;;;;;4.30;1.77;;;;;;;;;;5108084;28;20390;-66
2022/07/06 04:27:37;;;;;;;4.28;1.38;;;;;;;;;;5104416;28;20040;-66
2022/07/06 04:30:04;;;;;;;6.05;1.60;;;;;;;;;;5106255;28;20035;-66
2022/07/06 04:32:30;;;;;;;5.85;1.75;;;;;;;;;;5107472;28;20044;-66
2022/07/06 04:34:56;;;;;;;5.63;1.40;;;;;;;;;;5100244;28;20039;-66
2022/07/06 04:37:22;;;;;;;4.88;1.40;;;;;;;;;;5100862;28;20036;-66
2022/07/06 04:39:48;;;;;;;3.13;1.40;;;;;;;;;;5101780;28;20039;-66
2022/07/06 04:42:14;;;;;;;5.72;1.67;;;;;;;;;;5112876;22;20200;-64
2022/07/06 04:44:40;;;;;;;3.50;1.48;;;;;;;;;;5085248;28;20120;-63
2022/07/06 04:47:07;;;;;;;6.22;1.42;;;;;;;;;;5083118;28;20036;-63
2022/07/06 04:49:33;;;;;;;6.78;1.45;;;;;;;;;;5087607;28;20043;-63
2022/07/06 04:51:59;;;;;;;4.30;1.67;;;;;;;;;;5085325;28;20040;-63
2022/07/06 04:54:25;;;;;;;3.65;1.20;;;;;;;;;;5095797;28;20038;-64
2022/07/06 04:56:51;;;;;;;2.97;1.25;;;;;;;;;;5087003;28;20033;-63
2022/07/06 04:59:17;;;;;;;4.03;1.55;;;;;;;;;;5085461;28;20036;-64
2022/07/06 05:01:43;;;;;;;4.13;1.80;;;;;;;;;;5083510;28;20057;-64
2022/07/06 05:04:09;;;;;;;2.70;1.40;;;;;;;;;;5082107;28;20123;-63
2022/07/06 05:06:35;;;;;;;3.65;1.23;;;;;;;;;;5086609;28;20052;-64
2022/07/06 05:09:01;;;;;;;4.22;1.30;;;;;;;;;;5083216;28;20089;-63
2022/07/06 05:11:28;;;;;;;5.72;1.33;;;;;;;;;;5087540;28;20040;-63
2022/07/06 05:13:54;;;;;;;4.50;1.13;;;;;;;;;;5095648;28;20036;-64
2022/07/06 05:16:21;;;;;;;8.40;1.45;;;;;;;;;;5096019;28;20064;-64
2022/07/06 05:18:47;;;;;;;4.65;1.30;;;;;;;;;;5092271;28;20400;-64
2022/07/06 05:21:13;;;;;;;2.65;0.90;;;;;;;;;;5090024;28;20404;-63
2022/07/06 05:23:39;;;;;;;4.78;1.30;;;;;;;;;;5083186;28;20093;-63
2022/07/06 05:26:05;;;;;;;4.55;1.10;;;;;;;;;;5093708;28;20067;-63
2022/07/06 05:28:31;;;;;;;3.95;1.08;;;;;;;;;;5103247;28;20036;-64
2022/07/06 05:30:57;;;;;;;2.33;0.98;;;;;;;;;;5101371;28;20097;-63
2022/07/06 05:33:23;;;;;;;2.67;1.08;;;;;;;;;;5085532;28;20032;-63
2022/07/06 05:35:49;;;;;;;3.72;0.88;;;;;;;;;;5088070;28;20546;-63
2022/07/06 05:38:16;;;;;;;3.60;1.02;;;;;;;;;;5087261;28;20081;-63
2022/07/06 05:40:42;;;;;;;3.53;1.00;;;;;;;;;;5089610;28;20489;-63
2022/07/06 05:43:08;;;;;;;3.13;0.77;;;;;;;;;;5091932;28;20132;-63
2022/07/06 05:45:34;;;;;;;4.90;1.42;;;;;;;;;;5092919;28;20047;-63
2022/07/06 05:50:45;;;;;;;3.28;0.70;;;;;;;;;;5083140;28;20452;-63
2022/07/06 05:53:11;;;;;;;4.20;0.90;;;;;;;;;;5077188;28;20151;-63
2022/07/06 05:55:37;;;;;;;6.40;1.13;;;;;;;;;;5089509;28;20406;-63
2022/07/06 05:58:03;;;;;;;2.97;0.80;;;;;;;;;;5097067;28;20031;-63
2022/07/06 06:00:29;;;;;;;4.32;1.02;;;;;;;;;;5089891;28;20097;-63
2022/07/06 06:02:56;;;;;;;2.80;0.82;;;;;;;;;;5088576;28;20036;-63
2022/07/06 06:05:22;;;;;;;4.25;1.00;;;;;;;;;;5090907;28;20040;-62
2022/07/06 06:07:50;;;;;;;4.75;0.93;;;;;;;;;;5089585;28;20036;-63
2022/07/06 06:10:17;;;;;;;4.85;0.80;;;;;;;;;;5086215;28;20040;-63
2022/07/06 06:12:44;;;;;;;3.30;0.80;;;;;;;;;;5095476;28;20040;-63
2022/07/06 06:15:10;;;;;;;7.93;1.38;;;;;;;;;;5090769;28;20119;-63
2022/07/06 06:17:37;;;;;;;4.20;0.80;;;;;;;;;;5089889;28;20413;-63
2022/07/06 06:20:03;;;;;;;2.03;0.68;;;;;;;;;;5084369;28;20120;-63
2022/07/06 06:22:29;;;;;;;5.45;0.60;;;;;;;;;;5080458;28;20040;-63
2022/07/06 06:24:56;;;;;;;2.75;0.57;;;;;;;;;;5089904;28;20036;-63
2022/07/06 06:27:22;;;;;;;4.45;0.70;;;;;;;;;;5088203;28;20044;-63
2022/07/06 06:29:48;;;;;;;5.15;1.10;;;;;;;;;;5078808;28;20040;-63
2022/07/06 06:32:14;;;;;;;5.95;0.95;;;;;;;;;;5087770;28;20040;-63
2022/07/06 06:34:40;;;;;;;3.75;0.63;;;;;;;;;;5087428;28;20043;-63
2022/07/06 06:37:07;;;;;;;3.28;0.60;;;;;;;;;;5083938;28;20050;-64
2022/07/06 06:39:33;;;;;;;1.85;0.60;;;;;;;;;;5090297;28;20028;-63
2022/07/06 06:41:59;;;;;;;2.67;0.77;;;;;;;;;;5085572;28;20506;-63
2022/07/06 06:44:25;;;;;;;7.18;0.93;;;;;;;;;;5090082;28;20511;-63
2022/07/06 06:46:54;;;;;;;3.67;0.75;;;;;;;;;;5083302;28;20044;-64
2022/07/06 06:49:20;;;;;;;2.28;0.65;;;;;;;;;;5085402;28;20071;-64
2022/07/06 06:51:46;;;;;;;6.60;0.90;;;;;;;;;;5083399;28;20047;-64
2022/07/06 06:54:12;;;;;;;5.03;0.77;;;;;;;;;;5094170;28;20040;-64
2022/07/06 06:56:38;;;;;;;1.60;0.60;;;;;;;;;;5093483;28;20064;-64
2022/07/06 06:59:04;;;;;;;3.17;0.60;;;;;;;;;;5092913;28;20060;-64
2022/07/06 07:01:32;;;;;;;5.07;0.70;;;;;;;;;;5092917;28;20447;-64
2022/07/06 07:03:58;;;;;;;3.03;0.60;;;;;;;;;;5086417;28;20520;-64
2022/07/06 07:06:24;;;;;;;3.70;0.82;;;;;;;;;;5093156;28;20050;-63
2022/07/06 07:08:50;;;;;;;5.13;0.70;;;;;;;;;;5091562;28;20428;-64
2022/07/06 07:11:17;;;;;;;3.35;0.80;;;;;;;;;;5083365;28;20044;-63
2022/07/06 07:13:43;;;;;;;5.43;0.57;;;;;;;;;;5084740;28;20040;-64
2022/07/06 07:16:09;;;;;;;4.35;0.52;;;;;;;;;;5093390;28;20044;-64
2022/07/06 07:18:35;;;;;;;4.30;0.65;;;;;;;;;;5091470;28;20125;-64
2022/07/06 07:21:01;;;;;;;4.18;0.77;;;;;;;;;;5091481;28;20071;-63
2022/07/06 07:23:27;;;;;;;1.48;0.50;;;;;;;;;;5092340;28;20118;-63
2022/07/06 07:25:53;;;;;;;2.92;0.70;;;;;;;;;;5078959;28;20448;-63
2022/07/06 07:28:19;;;;;;;3.10;0.50;;;;;;;;;;5087650;28;20036;-63
2022/07/06 07:30:45;;;;;;;5.90;0.98;;;;;;;;;;5092309;28;20093;-63
2022/07/06 07:33:11;;;;;;;3.08;0.80;;;;;;;;;;5090989;28;20071;-63
2022/07/06 07:35:37;;;;;;;4.00;0.77;;;;;;;;;;5092491;28;20119;-63
2022/07/06 07:38:03;;;;;;;5.03;0.75;;;;;;;;;;5084515;28;20059;-63
2022/07/06 07:40:29;;;;;;;1.92;0.50;;;;;;;;;;5091684;28;20036;-63
2022/07/06 07:42:55;;;;;;;1.92;0.55;;;;;;;;;;5092941;28;20126;-64
2022/07/06 07:45:21;;;;;;;3.58;0.80;;;;;;;;;;5093035;28;20035;-63
2022/07/06 07:47:47;;;;;;;4.85;0.98;;;;;;;;;;5092557;28;20040;-63
2022/07/06 07:50:14;;;;;;;2.95;0.60;;;;;;;;;;5090637;28;20048;-63
2022/07/06 07:52:40;;;;;;;7.70;0.95;;;;;;;;;;5091907;28;20047;-63
2022/07/06 07:55:07;;;;;;;1.58;0.60;;;;;;;;;;5091488;28;20558;-63
2022/07/06 07:57:33;;;;;;;3.90;0.80;;;;;;;;;;5092744;28;20125;-63
2022/07/06 07:59:59;;;;;;;3.85;0.57;;;;;;;;;;5092359;28;20078;-64
2022/07/06 08:02:25;;;;;;;1.52;0.50;;;;;;;;;;5091048;28;20062;-63
2022/07/06 08:04:51;;;;;;;2.40;0.57;;;;;;;;;;5092479;28;20052;-63
2022/07/06 08:07:17;;;;;;;3.75;0.60;;;;;;;;;;5083387;28;20045;-63
2022/07/06 08:09:43;;;;;;;3.28;0.55;;;;;;;;;;5092130;28;20611;-63
2022/07/06 08:12:09;;;;;;;2.42;0.52;;;;;;;;;;5091975;28;20036;-63
2022/07/06 08:14:37;;;;;;;5.30;0.85;;;;;;;;;;5090410;28;20084;-64
2022/07/06 08:17:03;;;;;;;5.30;0.65;;;;;;;;;;5088030;28;20070;-63
2022/07/06 08:19:30;;;;;;;1.92;0.60;;;;;;;;;;5079742;28;20036;-64
2022/07/06 08:21:56;;;;;;;2.92;0.52;;;;;;;;;;5076360;28;20048;-63
2022/07/06 08:24:22;;;;;;;2.92;0.63;;;;;;;;;;5071685;28;20036;-63
2022/07/06 08:26:48;;;;;;;2.72;0.40;;;;;;;;;;5085762;28;20067;-63
2022/07/06 08:29:14;;;;;;;3.80;0.57;;;;;;;;;;5088334;28;20040;-64
2022/07/06 08:31:40;;;;;;;2.83;0.70;;;;;;;;;;5090589;28;20512;-64
2022/07/06 08:34:07;;;;;;;2.33;0.60;;;;;;;;;;5083573;28;20032;-63
2022/07/06 08:36:33;;;;;;;1.33;0.43;;;;;;;;;;5072098;28;20111;-63
2022/07/06 08:38:59;;;;;;;3.83;0.60;;;;;;;;;;5088785;28;20036;-63
2022/07/06 08:41:29;;;;;;;1.13;0.57;;;;;;;;;;5091563;28;20074;-63
2022/07/06 08:43:55;;;;;;;2.83;0.70;;;;;;;;;;5091195;28;20185;-63
2022/07/06 08:46:21;;;;;;;1.42;0.43;;;;;;;;;;5091347;28;20067;-63
2022/07/06 08:48:48;;;;;;;1.52;0.57;;;;;;;;;;5095648;28;20032;-63
2022/07/06 08:51:15;;;;;;;1.95;0.50;;;;;;;;;;5075478;28;20037;-63
2022/07/06 08:53:42;;;;;;;4.30;0.50;;;;;;;;;;5091914;28;20040;-63
2022/07/06 08:56:08;;;;;;;5.18;0.80;;;;;;;;;;5091670;28;20035;-63
2022/07/06 08:58:35;;;;;;;2.22;0.50;;;;;;;;;;5091074;28;20434;-63
2022/07/06 09:01:01;;;;;;;3.45;0.50;;;;;;;;;;5089465;28;20123;-63
2022/07/06 09:03:28;;;;;;;4.25;0.70;;;;;;;;;;5081129;28;20052;-63
2022/07/06 09:05:56;;;;;;;2.88;0.47;;;;;;;;;;5072358;28;20086;-63
2022/07/06 09:08:22;;;;;;;4.38;0.60;;;;;;;;;;5091775;28;20048;-63
2022/07/06 09:10:48;;;;;;;2.45;0.60;;;;;;;;;;5090965;28;20040;-63
2022/07/06 09:13:14;;;;;;;2.33;0.50;;;;;;;;;;5090284;28;20130;-63
2022/07/06 09:15:40;;;;;;;2.20;0.50;;;;;;;;;;5082425;28;20114;-63
2022/07/06 09:18:07;;;;;;;2.67;0.50;;;;;;;;;;5091257;28;20036;-63
2022/07/06 09:20:34;;;;;;;6.57;0.50;;;;;;;;;;5090682;28;20047;-63
2022/07/06 09:23:01;;;;;;;1.83;0.38;;;;;;;;;;5091667;28;20560;-63
2022/07/06 09:25:27;;;;;;;2.40;0.40;;;;;;;;;;5091292;28;20027;-63
2022/07/06 09:27:57;;;;;;;1.88;0.65;;;;;;;;;;5091065;28;20375;-63
2022/07/06 09:30:23;;;;;;;2.92;0.40;;;;;;;;;;5089357;28;20032;-63
2022/07/06 09:32:50;;;;;;;2.35;0.50;;;;;;;;;;5077341;28;20041;-63
2022/07/06 09:35:21;;;;;;;3.90;0.50;;;;;;;;;;5076588;28;20067;-63
2022/07/06 09:37:47;;;;;;;3.90;0.88;;;;;;;;;;5091412;28;20086;-63
2022/07/06 09:40:17;;;;;;;2.40;0.45;;;;;;;;;;5091164;28;20050;-63
2022/07/06 09:42:43;;;;;;;3.77;0.67;;;;;;;;;;5090858;28;20036;-63
2022/07/06 09:45:10;;;;;;;1.90;0.40;;;;;;;;;;5089504;28;20031;-63
2022/07/06 09:47:37;;;;;;;2.75;0.45;;;;;;;;;;5071317;28;20101;-64
2022/07/06 09:50:05;;;;;;;2.08;0.50;;;;;;;;;;5082548;28;20039;-63
2022/07/06 09:52:34;;;;;;;2.88;0.50;;;;;;;;;;5091223;28;20036;-63
2022/07/06 09:55:00;;;;;;;1.13;0.30;;;;;;;;;;5090860;28;20040;-63
2022/07/06 09:57:26;;;;;;;2.15;0.43;;;;;;;;;;5093487;28;20509;-63
2022/07/06 09:59:52;;;;;;;1.40;0.30;;;;;;;;;;5093911;28;20040;-64
2022/07/06 10:02:22;;;;;;;2.95;0.52;;;;;;;;;;5076929;28;20044;-63
2022/07/06 10:04:49;;;;;;;2.27;0.50;;;;;;;;;;5085710;28;20056;-63
2022/07/06 10:07:15;;;;;;;0.50;0.22;;;;;;;;;;5094376;28;20603;-63
2022/07/06 10:09:41;;;;;;;1.02;0.50;;;;;;;;;;5094303;28;20093;-63
2022/07/06 10:12:10;;;;;;;1.67;0.30;;;;;;;;;;5093323;28;20040;-64
2022/07/06 10:14:37;;;;;;;0.93;0.30;;;;;;;;;;5082917;28;20033;-64
2022/07/06 10:17:05;;;;;;;4.38;0.60;;;;;;;;;;5074069;28;20036;-63
2022/07/06 10:19:31;;;;;;;3.58;0.28;;;;;;;;;;5091701;28;20040;-63
2022/07/06 10:22:02;;;;;;;1.00;0.38;;;;;;;;;;5094055;28;20127;-63
2022/07/06 10:24:29;;;;;;;2.63;0.38;;;;;;;;;;5094373;28;20131;-63
2022/07/06 10:26:56;;;;;;;2.65;0.30;;;;;;;;;;5093416;28;20405;-63
2022/07/06 10:29:22;;;;;;;3.40;0.35;;;;;;;;;;5091138;28;20097;-63
2022/07/06 10:31:49;;;;;;;1.58;0.35;;;;;;;;;;5072927;28;20123;-63
2022/07/06 10:34:16;;;;;;;2.03;0.40;;;;;;;;;;5089380;28;20433;-63
2022/07/06 10:36:43;;;;;;;2.22;0.30;;;;;;;;;;5093856;28;20379;-63
2022/07/06 10:41:54;;;;;;;2.38;0.30;;;;;;;;;;5115825;22;20035;-66
2022/07/06 10:44:25;;;;;;;2.42;0.47;;;;;;;;;;5112491;27;20036;-66
2022/07/06 10:46:52;;;;;;;;;;;;;;;;;;5094212;28;20113;-66
2022/07/06 10:49:18;;;;;;;2.03;0.30;;;;;;;;;;5105169;28;19923;-66
2022/07/06 10:51:44;;;;;;;1.55;0.30;;;;;;;;;;5084678;28;20146;-66
2022/07/06 10:54:10;;;;;;;1.25;0.30;;;;;;;;;;5073530;28;20058;-66
2022/07/06 10:56:37;;;;;;;1.27;0.20;;;;;;;;;;5079361;28;20451;-66
2022/07/06 10:59:09;;;;;;;2.05;0.38;;;;;;;;;;5092730;28;20414;-66
2022/07/06 11:01:35;;;;;;;0.47;0.17;;;;;;;;;;5084983;28;20050;-66
2022/07/06 11:04:02;;;;;;;1.63;0.30;;;;;;;;;;5093937;28;20501;-66
2022/07/06 11:06:28;;;;;;;1.00;0.30;;;;;;;;;;5093498;28;20105;-66
2022/07/06 11:08:54;;;;;;;2.28;0.40;;;;;;;;;;5093126;28;20393;-66
2022/07/06 11:11:20;;;;;;;1.30;0.40;;;;;;;;;;5092822;28;20497;-66
2022/07/06 11:14:03;;;;;;;3.08;0.40;;;;;;;;;;5092026;28;20428;-65
2022/07/06 11:16:36;;;;;;;2.05;0.30;;;;;;;;;;5081901;28;20093;-65
2022/07/06 11:19:07;;;;;;;2.00;0.22;;;;;;;;;;5089901;28;20047;-65
2022/07/06 11:21:36;;;;;;;2.17;0.60;;;;;;;;;;5093522;28;20089;-66
2022/07/06 11:24:03;;;;;;;2.97;0.38;;;;;;;;;;5092972;28;20051;-65
2022/07/06 11:26:30;;;;;;;2.20;0.50;;;;;;;;;;5092904;28;20086;-66
2022/07/06 11:28:58;;;;;;;1.85;0.45;;;;;;;;;;5092967;28;20386;-65
2022/07/06 11:31:24;;;;;;;3.25;0.57;;;;;;;;;;5091274;28;20492;-65
2022/07/06 11:33:50;;;;;;;2.05;0.55;;;;;;;;;;5079235;28;20398;-65
2022/07/06 11:36:18;;;;;;;3.17;0.52;;;;;;;;;;5072927;28;20043;-66
2022/07/06 11:38:44;;;;;;;1.38;0.70;;;;;;;;;;5072326;28;20041;-66
2022/07/06 11:41:13;;;;;;;2.45;0.47;;;;;;;;;;5079359;28;20039;-66
2022/07/06 11:43:42;;;;;;;2.53;0.50;;;;;;;;;;5093149;28;20040;-66
2022/07/06 11:46:18;;;;;;;1.90;0.50;;;;;;;;;;5091746;28;20036;-66
2022/07/06 11:48:46;;;;;;;1.88;0.57;;;;;;;;;;5088443;28;20040;-65
2022/07/06 11:51:14;;;;;;;1.65;0.40;;;;;;;;;;5090613;28;20079;-65
2022/07/06 11:53:43;;;;;;;2.88;0.60;;;;;;;;;;5092718;28;20386;-66
2022/07/06 11:56:09;;;;;;;1.35;0.52;;;;;;;;;;5093005;28;20122;-66
2022/07/06 11:58:35;;;;;;;2.45;0.47;;;;;;;;;;5091681;28;20117;-66
2022/07/06 12:01:08;;;;;;;2.08;0.40;;;;;;;;;;5093040;28;20081;-65
2022/07/06 12:03:34;;;;;;;3.55;0.60;;;;;;;;;;5090674;28;20091;-66
2022/07/06 12:06:02;;;;;;;4.45;0.68;;;;;;;;;;5092387;28;20040;-66
2022/07/06 12:08:28;;;;;;;1.52;0.50;;;;;;;;;;5092377;28;20040;-66
2022/07/06 12:10:55;;;;;;;2.63;0.60;;;;;;;;;;5096340;28;20036;-66
2022/07/06 12:13:21;;;;;;;1.98;0.40;;;;;;;;;;5092596;28;20052;-66
2022/07/06 12:15:47;;;;;;;2.13;0.40;;;;;;;;;;5095024;28;20114;-66
2022/07/06 12:18:13;;;;;;;3.08;0.73;;;;;;;;;;5091833;28;20473;-66
2022/07/06 12:20:39;;;;;;;0.93;0.47;;;;;;;;;;5094251;28;20502;-66
2022/07/06 12:23:05;;;;;;;4.63;0.65;;;;;;;;;;5093323;28;20413;-66
2022/07/06 12:25:36;;;;;;;4.90;0.77;;;;;;;;;;5094810;28;20032;-66
2022/07/06 12:28:02;;;;;;;1.60;0.32;;;;;;;;;;5089761;28;20036;-66
2022/07/06 12:30:28;;;;;;;3.38;0.38;;;;;;;;;;5093997;28;20040;-66
2022/07/06 12:33:13;;;;;;;3.42;0.70;;;;;;;;;;5086765;28;21522;-65
2022/07/06 12:35:40;;;;;;;2.35;0.50;;;;;;;;;;5084298;28;20074;-66
2022/07/06 12:38:06;;;;;;;3.58;0.82;;;;;;;;;;5091666;28;20401;-66
2022/07/06 12:40:32;;;;;;;3.05;0.55;;;;;;;;;;5088453;28;20051;-66
2022/07/06 12:42:58;;;;;;;2.10;0.50;;;;;;;;;;5085247;28;20036;-66
2022/07/06 12:45:28;;;;;;;1.02;0.50;;;;;;;;;;5091694;28;20043;-66
2022/07/06 12:48:06;;;;;;;2.90;0.50;;;;;;;;;;5091200;28;20040;-66
2022/07/06 12:50:36;;;;;;;7.28;0.90;;;;;;;;;;5084213;28;20036;-66
2022/07/06 12:53:03;;;;;;;1.08;0.40;;;;;;;;;;5082644;28;20532;-66
2022/07/06 12:55:30;;;;;;;2.00;0.50;;;;;;;;;;5082911;28;20559;-66
2022/07/06 12:57:57;;;;;;;2.60;0.40;;;;;;;;;;5091018;28;20048;-66
2022/07/06 13:00:23;;;;;;;2.13;0.60;;;;;;;;;;5091567;28;20044;-66
2022/07/06 13:02:53;;;;;;;1.92;0.50;;;;;;;;;;5091531;28;20066;-66
2022/07/06 13:05:29;;;;;;;3.03;0.57;;;;;;;;;;5084013;28;20044;-65
2022/07/06 13:07:56;;;;;;;1.52;0.50;;;;;;;;;;5084890;28;20092;-66
2022/07/06 13:10:22;;;;;;;1.58;0.50;;;;;;;;;;5083016;28;20044;-66
2022/07/06 13:12:48;;;;;;;2.97;0.73;;;;;;;;;;5094292;28;20032;-66
2022/07/06 13:15:15;;;;;;;2.58;0.60;;;;;;;;;;5091896;28;20145;-65
2022/07/06 13:17:41;;;;;;;2.05;0.60;;;;;;;;;;5090720;28;20068;-66
2022/07/06 13:20:08;;;;;;;1.88;0.43;;;;;;;;;;5090772;28;20032;-66
2022/07/06 13:22:34;;;;;;;2.70;0.40;;;;;;;;;;5094052;28;20046;-66
2022/07/06 13:25:00;;;;;;;2.90;0.50;;;;;;;;;;5091084;28;20444;-66
2022/07/06 13:27:26;;;;;;;4.43;0.40;;;;;;;;;;5089567;28;20050;-66
2022/07/06 13:29:52;;;;;;;2.38;0.57;;;;;;;;;;5091254;28;20040;-65
2022/07/06 13:32:18;;;;;;;1.90;0.50;;;;;;;;;;5093745;28;20048;-65
2022/07/06 13:34:44;;;;;;;3.58;0.40;;;;;;;;;;5096007;28;20040;-65
2022/07/06 13:37:10;;;;;;;1.17;0.40;;;;;;;;;;5096437;28;20032;-66
2022/07/06 13:39:36;;;;;;;1.58;0.60;;;;;;;;;;5114106;28;20092;-65
2022/07/06 13:42:03;;;;;;;3.58;0.52;;;;;;;;;;5108283;28;20042;-65
2022/07/06 13:44:29;;;;;;;3.08;0.60;;;;;;;;;;5094848;28;20485;-65
2022/07/06 13:46:55;;;;;;;4.18;0.80;;;;;;;;;;5094093;28;20493;-66
2022/07/06 13:49:21;;;;;;;1.35;0.40;;;;;;;;;;5092803;28;20052;-66
2022/07/06 13:51:47;;;;;;;2.85;0.70;;;;;;;;;;5094552;28;20101;-66
2022/07/06 13:54:13;;;;;;;3.05;0.70;;;;;;;;;;5094913;28;20032;-65
2022/07/06 13:56:40;;;;;;;1.80;0.60;;;;;;;;;;5094338;28;20036;-65
2022/07/06 13:59:07;;;;;;;5.78;0.63;;;;;;;;;;5092284;28;20393;-65
2022/07/06 14:01:33;;;;;;;3.08;0.68;;;;;;;;;;5085864;28;20051;-66
2022/07/06 14:03:59;;;;;;;2.15;0.70;;;;;;;;;;5094570;28;20093;-65
2022/07/06 14:06:25;;;;;;;2.17;0.60;;;;;;;;;;5104698;28;20048;-66
2022/07/06 14:08:51;;;;;;;3.42;0.60;;;;;;;;;;5105524;28;20616;-65
2022/07/06 14:11:18;;;;;;;1.30;0.45;;;;;;;;;;5108029;28;20405;-65
2022/07/06 14:13:44;;;;;;;2.83;0.88;;;;;;;;;;5092570;28;20039;-65
2022/07/06 14:16:10;;;;;;;2.08;0.50;;;;;;;;;;5089920;28;20594;-65
2022/07/06 14:18:36;;;;;;;2.58;0.73;;;;;;;;;;5087689;28;20063;-66
2022/07/06 14:21:03;;;;;;;3.15;0.80;;;;;;;;;;5099623;28;20032;-65
2022/07/06 14:23:29;;;;;;;3.65;1.10;;;;;;;;;;5094648;28;20434;-65
2022/07/06 14:25:56;;;;;;;3.95;0.60;;;;;;;;;;5093858;28;20071;-65
2022/07/06 14:28:22;;;;;;;2.05;0.50;;;;;;;;;;5092420;28;20501;-66
2022/07/06 14:30:48;;;;;;;4.70;0.50;;;;;;;;;;5088588;28;20037;-65
2022/07/06 14:33:15;;;;;;;4.65;0.60;;;;;;;;;;5089501;28;20444;-65
2022/07/06 14:35:43;;;;;;;2.15;0.40;;;;;;;;;;5108734;28;20497;-65
2022/07/06 14:38:09;;;;;;;2.50;0.65;;;;;;;;;;5093605;28;20089;-65
2022/07/06 14:40:36;;;;;;;3.15;0.70;;;;;;;;;;5094155;28;20047;-65
2022/07/06 14:43:02;;;;;;;2.45;0.80;;;;;;;;;;5090986;28;20036;-65
2022/07/06 14:45:28;;;;;;;3.85;0.70;;;;;;;;;;5091142;28;20040;-65